Time;durP1;ratioP1;P1;durP2;ratioP2;P2;SDS_P1;SDS_P2;PMS_P1;PMS_P2;Temp;Humidity;BMP_temperature;BMP_pressure;BME280_temperature;BME280_humidity;BME280_pressure;Samples;Min_cycle;Max_cycle;Signal;HPM_P1;HPM_P2
2022/10/15 00:01:15;;;;;;;23.43;18.20;;;13.40;99.90;;;;;;5039479;28;20459;-67
2022/10/15 00:03:44;;;;;;;20.83;18.73;;;13.40;99.90;;;;;;5039359;28;20873;-67
2022/10/15 00:06:20;;;;;;;20.13;18.03;;;13.40;99.90;;;;;;5039844;28;20475;-67
2022/10/15 00:08:50;;;;;;;21.57;19.37;;;13.40;99.90;;;;;;5039723;28;20461;-67
2022/10/15 00:11:20;;;;;;;20.17;18.03;;;13.40;99.90;;;;;;5039412;28;20832;-67
2022/10/15 00:13:47;;;;;;;18.90;17.10;;;13.40;99.90;;;;;;5039644;28;20463;-67
2022/10/15 00:16:18;;;;;;;18.30;16.40;;;13.40;99.90;;;;;;5039244;28;20491;-67
2022/10/15 00:18:46;;;;;;;19.20;17.23;;;13.40;99.90;;;;;;5039614;28;20438;-66
2022/10/15 00:21:16;;;;;;;19.00;17.10;;;13.40;99.90;;;;;;5039131;28;20511;-66
2022/10/15 00:23:45;;;;;;;17.70;16.00;;;13.30;99.90;;;;;;5039133;28;20517;-66
2022/10/15 00:26:16;;;;;;;17.67;15.80;;;13.30;99.90;;;;;;5039363;28;20864;-67
2022/10/15 00:28:43;;;;;;;18.87;17.07;;;13.30;99.90;;;;;;5039383;28;20494;-67
2022/10/15 00:31:12;;;;;;;18.37;16.50;;;13.40;99.90;;;;;;5038761;28;20467;-67
2022/10/15 00:33:40;;;;;;;18.43;16.67;;;13.30;99.90;;;;;;5038815;28;20438;-67
2022/10/15 00:36:10;;;;;;;20.73;18.27;;;13.40;99.90;;;;;;5038589;28;20842;-67
2022/10/15 00:38:37;;;;;;;17.90;16.03;;;13.40;99.90;;;;;;5038741;28;20455;-67
2022/10/15 00:41:07;;;;;;;18.60;16.60;;;13.30;99.90;;;;;;5038166;28;20484;-66
2022/10/15 00:43:41;;;;;;;20.47;18.47;;;13.30;99.90;;;;;;5038696;28;20433;-67
2022/10/15 00:46:18;;;;;;;22.10;17.43;;;13.30;99.90;;;;;;5039057;28;20733;-67
2022/10/15 00:48:48;;;;;;;19.83;17.73;;;13.30;99.90;;;;;;5039078;28;20505;-67
2022/10/15 00:51:16;;;;;;;20.03;17.97;;;13.30;99.90;;;;;;5039075;28;20911;-67
2022/10/15 00:53:48;;;;;;;19.83;17.87;;;13.20;99.90;;;;;;5039023;28;20437;-67
2022/10/15 00:56:17;;;;;;;21.33;18.50;;;13.20;99.90;;;;;;5044078;28;20839;-67
2022/10/15 00:58:47;;;;;;;21.93;19.10;;;13.20;99.90;;;;;;5058745;28;20462;-67
2022/10/15 01:01:14;;;;;;;21.40;19.30;;;13.30;99.90;;;;;;5058219;28;20462;-67
2022/10/15 01:03:46;;;;;;;24.33;21.73;;;13.30;99.90;;;;;;5058208;28;20560;-67
2022/10/15 01:06:13;;;;;;;23.63;21.13;;;13.30;99.90;;;;;;5058353;28;20472;-66
2022/10/15 01:08:40;;;;;;;23.67;19.93;;;13.30;99.90;;;;;;5057839;28;20548;-67
2022/10/15 01:11:31;;;;;;;22.17;19.80;;;13.30;99.90;;;;;;5058036;28;20441;-67
2022/10/15 01:14:12;;;;;;;20.93;18.43;;;13.30;99.90;;;;;;5058415;28;20483;-67
2022/10/15 01:16:46;;;;;;;20.57;18.10;;;13.30;99.90;;;;;;5058562;28;20441;-67
2022/10/15 01:19:31;;;;;;;20.37;18.37;;;13.30;99.90;;;;;;5057778;28;20530;-67
2022/10/15 01:22:05;;;;;;;23.27;20.07;;;13.40;99.90;;;;;;5057988;28;20494;-66
2022/10/15 01:25:00;;;;;;;25.30;19.30;;;13.30;99.90;;;;;;5057638;28;20878;-67
2022/10/15 01:27:36;;;;;;;21.37;19.00;;;13.40;99.90;;;;;;5057649;28;20494;-67
2022/10/15 01:30:22;;;;;;;22.47;20.07;;;13.40;99.90;;;;;;5057867;28;20462;-66
2022/10/15 01:33:08;;;;;;;25.17;20.33;;;13.40;99.90;;;;;;5057971;28;20461;-66
2022/10/15 01:35:44;;;;;;;24.37;21.73;;;13.40;99.90;;;;;;5057689;28;20477;-66
2022/10/15 01:38:35;;;;;;;23.13;20.83;;;13.30;99.90;;;;;;5057943;28;20436;-67
2022/10/15 01:41:10;;;;;;;20.33;18.23;;;13.30;99.90;;;;;;5056903;28;20470;-66
2022/10/15 01:43:42;;;;;;;22.87;20.50;;;13.30;99.90;;;;;;5057831;28;20436;-66
2022/10/15 01:46:16;;;;;;;21.40;19.17;;;13.30;99.90;;;;;;5057227;28;20462;-67
2022/10/15 01:48:43;;;;;;;24.47;21.00;;;13.30;99.90;;;;;;5057644;28;20938;-66
2022/10/15 01:51:13;;;;;;;22.93;20.53;;;13.30;99.90;;;;;;5057210;28;20470;-66
2022/10/15 01:53:41;;;;;;;22.47;19.70;;;13.30;99.90;;;;;;5057473;28;20437;-66
2022/10/15 01:56:12;;;;;;;23.47;20.13;;;13.30;99.90;;;;;;5057501;28;20835;-66
2022/10/15 01:58:42;;;;;;;19.93;17.63;;;13.30;99.90;;;;;;5057568;28;20890;-66
2022/10/15 02:01:12;;;;;;;25.57;18.87;;;13.30;99.90;;;;;;5057203;28;20879;-67
2022/10/15 02:03:49;;;;;;;22.90;19.17;;;13.30;99.90;;;;;;5057424;28;20785;-66
2022/10/15 02:06:23;;;;;;;21.13;18.80;;;13.30;99.90;;;;;;5057454;28;20482;-66
2022/10/15 02:09:00;;;;;;;22.13;19.70;;;13.30;99.90;;;;;;5056871;28;20486;-67
2022/10/15 02:11:27;;;;;;;19.87;17.83;;;13.40;99.90;;;;;;5057201;28;21001;-66
2022/10/15 02:14:01;;;;;;;20.63;18.53;;;13.30;99.90;;;;;;5056932;28;20462;-67
2022/10/15 02:16:40;;;;;;;19.93;17.83;;;13.30;99.90;;;;;;5057450;28;20755;-66
2022/10/15 02:19:16;;;;;;;17.70;15.90;;;13.20;99.90;;;;;;5056672;28;20429;-67
2022/10/15 02:21:46;;;;;;;17.17;15.50;;;13.20;99.90;;;;;;5057353;28;20453;-67
2022/10/15 02:24:17;;;;;;;22.10;18.27;;;13.20;99.90;;;;;;5056606;28;20477;-67
2022/10/15 02:26:46;;;;;;;21.87;18.77;;;13.30;99.90;;;;;;5057203;28;20444;-67
2022/10/15 02:29:17;;;;;;;20.60;18.60;;;13.20;99.90;;;;;;5056586;28;20493;-66
2022/10/15 02:31:49;;;;;;;20.73;18.57;;;13.20;99.90;;;;;;5056951;28;20809;-66
2022/10/15 02:34:20;;;;;;;18.60;16.70;;;13.20;99.90;;;;;;5057150;28;20937;-66
2022/10/15 02:36:53;;;;;;;20.97;18.90;;;13.20;99.90;;;;;;5057185;28;20462;-67
2022/10/15 02:39:24;;;;;;;20.20;18.10;;;13.20;99.90;;;;;;5056776;28;20717;-66
2022/10/15 02:41:52;;;;;;;29.13;25.37;;;13.10;99.90;;;;;;5057115;28;20470;-66
2022/10/15 02:44:19;;;;;;;18.93;16.93;;;13.10;99.90;;;;;;5056876;28;20469;-66
2022/10/15 02:46:50;;;;;;;21.03;18.80;;;13.10;99.90;;;;;;5056883;28;20519;-66
2022/10/15 02:49:17;;;;;;;20.20;18.13;;;13.00;99.90;;;;;;5056472;28;20508;-66
2022/10/15 02:51:44;;;;;;;18.93;16.93;;;13.00;99.90;;;;;;5055809;28;20872;-66
2022/10/15 02:54:14;;;;;;;20.73;17.27;;;13.10;99.90;;;;;;5056775;28;20437;-66
2022/10/15 02:56:44;;;;;;;20.70;17.63;;;13.10;99.90;;;;;;5057167;28;20436;-67
2022/10/15 02:59:11;;;;;;;22.70;20.40;;;13.20;99.90;;;;;;5059304;28;20475;-66
2022/10/15 03:01:38;;;;;;;21.60;18.93;;;13.30;99.90;;;;;;5060802;28;20466;-67
2022/10/15 03:04:10;;;;;;;21.60;19.30;;;13.20;99.90;;;;;;5060824;28;20485;-67
2022/10/15 03:06:37;;;;;;;20.10;17.90;;;13.20;99.90;;;;;;5060945;28;20536;-66
2022/10/15 03:09:05;;;;;;;20.93;18.70;;;13.20;99.90;;;;;;5060235;28;21243;-66
2022/10/15 03:11:32;;;;;;;20.10;18.00;;;13.10;99.90;;;;;;5060430;28;20466;-66
2022/10/15 03:13:59;;;;;;;22.53;18.17;;;13.10;99.90;;;;;;5060391;28;20461;-66
2022/10/15 03:16:26;;;;;;;22.10;19.80;;;13.10;99.90;;;;;;5060039;28;20466;-66
2022/10/15 03:18:56;;;;;;;22.30;18.30;;;13.10;99.90;;;;;;5060726;28;20861;-66
2022/10/15 03:21:29;;;;;;;21.00;18.90;;;13.10;99.90;;;;;;5060065;28;20469;-67
2022/10/15 03:23:57;;;;;;;19.93;17.90;;;13.10;99.90;;;;;;5060434;28;20440;-66
2022/10/15 03:26:24;;;;;;;21.50;19.00;;;13.10;99.90;;;;;;5060364;28;20472;-66
2022/10/15 03:28:51;;;;;;;19.33;17.30;;;13.10;99.90;;;;;;5060305;28;20926;-67
2022/10/15 03:31:19;;;;;;;21.23;18.90;;;13.10;99.90;;;;;;5059931;28;20468;-67
2022/10/15 03:33:46;;;;;;;19.50;17.40;;;13.10;99.90;;;;;;5059982;28;20441;-66
2022/10/15 03:36:13;;;;;;;20.30;18.10;;;13.00;99.90;;;;;;5060277;28;20463;-66
2022/10/15 03:38:42;;;;;;;21.67;19.37;;;13.00;99.90;;;;;;5060140;28;20457;-66
2022/10/15 03:41:09;;;;;;;26.80;21.33;;;13.00;99.90;;;;;;5059115;28;20928;-66
2022/10/15 03:43:38;;;;;;;23.47;20.27;;;13.10;99.90;;;;;;5059830;28;20474;-66
2022/10/15 03:46:07;;;;;;;26.20;21.50;;;13.10;99.90;;;;;;5059890;28;20436;-67
2022/10/15 03:48:37;;;;;;;25.33;22.63;;;13.10;99.90;;;;;;5059393;28;20464;-67
2022/10/15 03:51:06;;;;;;;27.33;24.50;;;13.10;99.90;;;;;;5059376;28;20527;-67
2022/10/15 03:53:34;;;;;;;28.80;25.70;;;13.10;99.90;;;;;;5059828;28;20448;-66
2022/10/15 03:56:05;;;;;;;30.00;25.10;;;13.20;99.90;;;;;;5059730;28;20462;-66
2022/10/15 03:58:33;;;;;;;30.57;26.40;;;13.10;99.90;;;;;;5060032;28;20461;-66
2022/10/15 04:01:01;;;;;;;30.77;24.70;;;13.20;99.90;;;;;;5059140;28;20436;-66
2022/10/15 04:03:28;;;;;;;29.33;26.13;;;13.20;99.90;;;;;;5046454;28;20434;-67
2022/10/15 04:05:56;;;;;;;30.30;26.20;;;13.10;99.90;;;;;;5039954;28;20467;-66
2022/10/15 04:08:24;;;;;;;28.77;25.63;;;13.10;99.90;;;;;;5039772;28;20762;-66
2022/10/15 04:10:51;;;;;;;32.07;25.60;;;13.10;99.90;;;;;;5038758;28;20459;-66
2022/10/15 04:13:20;;;;;;;30.57;26.80;;;13.10;99.90;;;;;;5039604;28;20746;-66
2022/10/15 04:15:47;;;;;;;29.53;25.17;;;13.20;99.90;;;;;;5039205;28;20462;-66
2022/10/15 04:18:14;;;;;;;30.33;26.23;;;13.20;99.90;;;;;;5038476;28;20727;-66
2022/10/15 04:20:42;;;;;;;35.57;27.27;;;13.20;99.90;;;;;;5039603;28;20463;-66
2022/10/15 04:23:09;;;;;;;32.97;28.33;;;13.20;99.90;;;;;;5039362;28;20493;-66
2022/10/15 04:25:38;;;;;;;33.70;26.20;;;13.20;99.90;;;;;;5039363;28;20441;-67
2022/10/15 04:28:05;;;;;;;32.80;26.73;;;13.20;99.90;;;;;;5038973;28;20749;-66
2022/10/15 04:30:35;;;;;;;30.27;26.00;;;13.20;99.90;;;;;;5039546;28;20467;-66
2022/10/15 04:33:02;;;;;;;32.93;26.83;;;13.10;99.90;;;;;;5039004;28;20871;-66
2022/10/15 04:35:33;;;;;;;31.30;26.73;;;13.10;99.90;;;;;;5038836;28;20437;-66
2022/10/15 04:38:01;;;;;;;39.47;27.57;;;13.10;99.90;;;;;;5039349;28;20867;-66
2022/10/15 04:40:28;;;;;;;30.87;26.43;;;13.10;99.90;;;;;;5038353;28;20533;-67
2022/10/15 04:42:55;;;;;;;33.37;28.27;;;13.10;99.90;;;;;;5038393;28;20557;-66
2022/10/15 04:45:22;;;;;;;39.17;28.93;;;13.10;99.90;;;;;;5039188;28;20438;-67
2022/10/15 04:47:51;;;;;;;33.90;27.67;;;13.20;99.90;;;;;;5038699;28;20723;-66
2022/10/15 04:50:18;;;;;;;38.27;28.30;;;13.20;99.90;;;;;;5038778;28;20518;-66
2022/10/15 04:52:47;;;;;;;43.03;30.97;;;13.20;99.90;;;;;;5038793;28;20463;-66
2022/10/15 04:55:14;;;;;;;41.43;30.67;;;13.20;99.90;;;;;;5038490;28;20775;-66
2022/10/15 04:57:41;;;;;;;41.50;31.73;;;13.20;99.90;;;;;;5038717;28;20480;-66
2022/10/15 05:00:10;;;;;;;44.60;31.97;;;13.10;99.90;;;;;;5038622;28;20526;-66
2022/10/15 05:02:41;;;;;;;41.07;32.10;;;13.20;99.90;;;;;;5038645;28;20463;-66
2022/10/15 05:05:10;;;;;;;42.90;31.80;;;13.20;99.90;;;;;;5038117;28;20550;-66
2022/10/15 05:07:37;;;;;;;39.03;30.33;;;13.20;99.90;;;;;;5038338;28;20470;-66
2022/10/15 05:10:05;;;;;;;44.63;33.37;;;13.20;99.90;;;;;;5038135;28;20589;-66
2022/10/15 05:12:32;;;;;;;46.03;33.77;;;13.20;99.90;;;;;;5038734;28;20482;-66
2022/10/15 05:14:59;;;;;;;43.23;31.17;;;13.20;99.90;;;;;;5037694;28;20522;-66
2022/10/15 05:17:30;;;;;;;44.20;33.00;;;13.20;99.90;;;;;;5038432;28;20716;-66
2022/10/15 05:19:58;;;;;;;44.47;31.40;;;13.10;99.90;;;;;;5038258;28;20455;-66
2022/10/15 05:22:27;;;;;;;43.20;31.60;;;13.20;99.90;;;;;;5037010;28;20462;-66
2022/10/15 05:24:54;;;;;;;43.33;33.67;;;13.10;99.90;;;;;;5055921;28;20466;-66
2022/10/15 05:27:22;;;;;;;44.00;33.67;;;13.10;99.90;;;;;;5055779;28;20462;-66
2022/10/15 05:29:49;;;;;;;46.13;34.33;;;13.10;99.90;;;;;;5056056;28;20469;-66
2022/10/15 05:32:16;;;;;;;46.00;31.90;;;13.00;99.90;;;;;;5056631;28;20756;-66
2022/10/15 05:34:43;;;;;;;45.93;33.50;;;13.10;99.90;;;;;;5056301;28;20468;-66
2022/10/15 05:37:10;;;;;;;47.70;34.07;;;13.00;99.90;;;;;;5056590;28;20486;-66
2022/10/15 05:39:39;;;;;;;43.47;31.73;;;13.10;99.90;;;;;;5056694;28;20457;-66
2022/10/15 05:42:06;;;;;;;41.23;31.97;;;13.10;99.90;;;;;;5056098;28;20535;-63
2022/10/15 05:44:33;;;;;;;40.50;31.00;;;13.10;99.90;;;;;;5056493;28;20478;-63
2022/10/15 05:47:11;;;;;;;45.70;32.53;;;13.10;99.90;;;;;;5056294;28;20926;-63
2022/10/15 05:49:38;;;;;;;45.77;32.77;;;13.20;99.90;;;;;;5056108;28;20501;-63
2022/10/15 05:52:05;;;;;;;41.80;31.37;;;13.30;99.90;;;;;;5056666;28;20485;-63
2022/10/15 05:54:32;;;;;;;43.63;31.03;;;13.20;99.90;;;;;;5057308;28;20436;-63
2022/10/15 05:57:01;;;;;;;42.97;31.70;;;13.20;99.90;;;;;;5057240;28;20468;-63
2022/10/15 05:59:31;;;;;;;37.17;29.53;;;13.30;99.90;;;;;;5057689;28;20458;-63
2022/10/15 06:02:00;;;;;;;40.93;29.27;;;13.20;99.90;;;;;;5057505;28;20433;-63
2022/10/15 06:04:31;;;;;;;41.20;30.93;;;13.30;99.90;;;;;;5057490;28;20437;-63
2022/10/15 06:06:58;;;;;;;38.30;28.03;;;13.30;99.90;;;;;;5057378;28;20437;-63
2022/10/15 06:09:25;;;;;;;40.50;30.50;;;13.30;99.90;;;;;;5057128;28;20746;-63
2022/10/15 06:11:53;;;;;;;34.13;26.70;;;13.30;99.90;;;;;;5057499;28;20462;-63
2022/10/15 06:14:23;;;;;;;32.70;26.53;;;13.30;99.90;;;;;;5056952;28;20493;-63
2022/10/15 06:16:53;;;;;;;31.30;26.13;;;13.30;99.90;;;;;;5057373;28;20470;-63
2022/10/15 06:19:20;;;;;;;32.77;27.40;;;13.30;99.90;;;;;;5056717;28;20486;-63
2022/10/15 06:21:48;;;;;;;31.47;26.80;;;13.30;99.90;;;;;;5057188;28;20909;-64
2022/10/15 06:24:15;;;;;;;36.30;28.30;;;13.40;99.90;;;;;;5057542;28;20462;-63
2022/10/15 06:26:43;;;;;;;32.00;25.47;;;13.30;99.90;;;;;;5057202;28;20462;-63
2022/10/15 06:29:18;;;;;;;32.67;26.07;;;13.40;99.90;;;;;;5056243;28;20513;-63
2022/10/15 06:31:46;;;;;;;31.40;24.97;;;13.40;99.90;;;;;;5056994;28;20467;-63
2022/10/15 06:34:13;;;;;;;35.17;26.53;;;13.40;99.90;;;;;;5056570;28;20467;-63
2022/10/15 06:36:41;;;;;;;32.07;27.93;;;13.40;99.90;;;;;;5056598;28;20524;-63
2022/10/15 06:39:08;;;;;;;29.47;25.57;;;13.40;99.90;;;;;;5056597;28;20432;-63
2022/10/15 06:41:35;;;;;;;28.90;25.37;;;13.50;99.90;;;;;;5057052;28;20470;-62
2022/10/15 06:44:03;;;;;;;29.73;25.83;;;13.50;99.90;;;;;;5061563;28;20450;-63
2022/10/15 06:46:32;;;;;;;35.17;26.80;;;13.50;99.90;;;;;;5075354;28;20869;-63
2022/10/15 06:49:02;;;;;;;39.00;28.30;;;13.60;99.90;;;;;;5055392;28;20919;-63
2022/10/15 06:51:29;;;;;;;42.00;29.73;;;13.50;99.90;;;;;;5056501;28;20469;-62
2022/10/15 06:53:56;;;;;;;36.70;28.50;;;13.50;99.90;;;;;;5057076;28;20480;-63
2022/10/15 06:56:27;;;;;;;34.57;28.27;;;13.50;99.90;;;;;;5057053;28;20448;-63
2022/10/15 06:58:54;;;;;;;38.40;31.00;;;13.50;99.90;;;;;;5056362;28;20536;-63
2022/10/15 07:01:21;;;;;;;37.90;30.17;;;13.60;99.90;;;;;;5056853;28;20441;-63
2022/10/15 07:03:51;;;;;;;38.63;30.93;;;13.70;99.90;;;;;;5056427;28;20785;-63
2022/10/15 07:06:22;;;;;;;38.67;29.27;;;13.70;99.90;;;;;;5056162;28;20450;-63
2022/10/15 07:08:52;;;;;;;43.80;32.07;;;13.60;99.90;;;;;;5056626;28;20460;-63
2022/10/15 07:11:19;;;;;;;39.70;31.00;;;13.60;99.90;;;;;;5056533;28;20552;-63
2022/10/15 07:13:47;;;;;;;42.00;31.60;;;13.70;99.90;;;;;;5056431;28;20462;-63
2022/10/15 07:16:15;;;;;;;44.60;35.87;;;13.70;99.90;;;;;;5056555;28;20501;-63
2022/10/15 07:18:43;;;;;;;40.80;31.70;;;13.70;99.90;;;;;;5056835;28;20433;-62
2022/10/15 07:21:11;;;;;;;45.67;32.20;;;13.70;99.90;;;;;;5056015;28;20465;-63
2022/10/15 07:23:45;;;;;;;42.10;33.47;;;13.80;99.90;;;;;;5054723;28;20756;-62
2022/10/15 07:26:12;;;;;;;42.33;32.70;;;13.90;99.90;;;;;;5054948;28;20873;-63
2022/10/15 07:28:40;;;;;;;39.23;32.90;;;13.90;99.90;;;;;;5055381;28;20908;-63
2022/10/15 07:31:08;;;;;;;40.40;32.90;;;13.90;99.90;;;;;;5054104;28;20597;-63
2022/10/15 07:33:35;;;;;;;38.57;29.53;;;13.90;99.90;;;;;;5055418;28;20463;-63
2022/10/15 07:36:06;;;;;;;35.00;29.90;;;13.80;99.90;;;;;;5053003;28;20496;-62
2022/10/15 07:38:34;;;;;;;34.57;28.23;;;13.80;99.90;;;;;;5055877;28;20496;-63
2022/10/15 07:41:03;;;;;;;35.90;28.30;;;13.90;99.90;;;;;;5054931;28;20472;-62
2022/10/15 07:43:34;;;;;;;31.83;26.30;;;14.00;99.90;;;;;;5055380;28;20462;-63
2022/10/15 07:46:01;;;;;;;36.63;27.67;;;14.10;99.90;;;;;;5058133;28;20461;-63
2022/10/15 07:48:29;;;;;;;29.30;24.33;;;14.30;99.90;;;;;;5058528;28;20426;-63
2022/10/15 07:50:56;;;;;;;28.40;25.50;;;14.50;99.90;;;;;;5057731;28;20465;-62
2022/10/15 07:53:26;;;;;;;26.07;23.20;;;14.60;99.90;;;;;;5058075;28;20833;-62
2022/10/15 07:55:53;;;;;;;30.03;24.07;;;14.60;99.90;;;;;;5057889;28;20443;-63
2022/10/15 07:58:24;;;;;;;24.53;21.93;;;14.60;99.90;;;;;;5055937;28;20490;-63
2022/10/15 08:00:54;;;;;;;28.03;22.93;;;14.60;99.90;;;;;;5057963;28;20492;-63
2022/10/15 08:03:21;;;;;;;24.10;21.73;;;14.60;99.90;;;;;;5057793;28;20451;-63
2022/10/15 08:05:52;;;;;;;26.40;22.70;;;14.60;99.90;;;;;;5058301;28;20458;-63
2022/10/15 08:08:19;;;;;;;26.40;23.10;;;14.60;99.90;;;;;;5057105;28;20440;-63
2022/10/15 08:10:49;;;;;;;25.60;22.23;;;14.50;99.90;;;;;;5057628;28;20482;-63
2022/10/15 08:13:17;;;;;;;23.37;20.87;;;14.50;99.90;;;;;;5058216;28;20436;-63
2022/10/15 08:15:45;;;;;;;22.27;19.90;;;14.40;99.90;;;;;;5057459;28;20517;-63
2022/10/15 08:18:12;;;;;;;22.50;20.10;;;14.30;99.90;;;;;;5055762;28;20493;-63
2022/10/15 08:20:40;;;;;;;20.70;17.70;;;14.50;99.90;;;;;;5057922;28;20425;-63
2022/10/15 08:23:15;;;;;;;20.03;18.00;;;14.40;99.90;;;;;;5057614;28;20474;-63
2022/10/15 08:25:43;;;;;;;17.00;15.30;;;14.60;99.90;;;;;;5056157;28;20455;-64
2022/10/15 08:28:10;;;;;;;16.43;14.73;;;14.60;99.90;;;;;;5058990;28;20441;-64
2022/10/15 08:30:38;;;;;;;19.03;17.13;;;14.70;99.90;;;;;;5059014;28;20490;-65
2022/10/15 08:33:06;;;;;;;14.23;12.73;;;15.00;99.90;;;;;;5057610;28;20468;-64
2022/10/15 08:35:37;;;;;;;14.20;12.70;;;15.30;99.90;;;;;;5058358;28;20752;-64
2022/10/15 08:38:04;;;;;;;13.63;9.77;;;15.50;99.90;;;;;;5058822;28;20437;-64
2022/10/15 08:40:32;;;;;;;11.00;9.73;;;15.60;99.90;;;;;;5057688;28;20487;-64
2022/10/15 08:42:59;;;;;;;9.07;8.30;;;15.80;99.90;;;;;;5058491;28;20486;-62
2022/10/15 08:45:34;;;;;;;8.13;7.33;;;16.10;99.90;;;;;;5058304;28;20462;-62
2022/10/15 08:48:12;;;;;;;7.90;6.97;;;16.40;99.90;;;;;;5058618;28;20486;-62
2022/10/15 08:50:42;;;;;;;6.83;6.00;;;16.60;99.90;;;;;;5058508;28;20471;-63
2022/10/15 08:53:14;;;;;;;8.00;7.30;;;16.70;99.90;;;;;;5058666;28;20436;-62
2022/10/15 08:55:46;;;;;;;6.63;5.90;;;17.00;99.90;;;;;;5057322;28;20468;-63
2022/10/15 08:58:17;;;;;;;6.43;5.50;;;16.90;99.90;;;;;;5058933;28;20468;-62
2022/10/15 09:00:50;;;;;;;5.87;5.33;;;16.60;99.90;;;;;;5057758;28;20425;-63
2022/10/15 09:03:38;;;;;;;5.10;4.60;;;16.20;99.90;;;;;;5058278;28;20437;-62
2022/10/15 09:06:17;;;;;;;5.30;4.80;;;16.40;1.00;;;;;;5057685;28;20744;-63
2022/10/15 09:08:52;;;;;;;5.70;4.90;;;16.80;1.00;;;;;;5058971;28;20462;-63
2022/10/15 09:11:26;;;;;;;4.33;3.93;;;17.20;99.90;;;;;;5057320;28;20497;-63
2022/10/15 09:13:54;;;;;;;5.17;4.13;;;17.50;99.90;;;;;;5058359;28;20436;-63
2022/10/15 09:16:25;;;;;;;5.20;3.90;;;17.40;99.90;;;;;;5058204;28;20489;-63
2022/10/15 09:18:56;;;;;;;4.50;4.10;;;17.50;99.90;;;;;;5056495;28;20466;-63
2022/10/15 09:21:24;;;;;;;4.60;4.20;;;17.60;99.90;;;;;;5056104;28;20756;-64
2022/10/15 09:23:52;;;;;;;4.43;3.60;;;17.50;99.90;;;;;;5055440;28;20461;-63
2022/10/15 09:26:28;;;;;;;4.07;3.23;;;17.50;22.50;;;;;;5056959;28;20444;-63
2022/10/15 09:29:03;;;;;;;3.53;3.23;;;17.30;1.00;;;;;;5057777;28;20462;-62
2022/10/15 09:31:40;;;;;;;3.50;3.20;;;17.30;99.90;;;;;;5058161;28;20562;-62
2022/10/15 09:34:20;;;;;;;6.93;3.00;;;17.20;99.90;;;;;;5058557;28;20691;-62
2022/10/15 09:36:53;;;;;;;3.30;3.00;;;17.20;99.90;;;;;;5058235;28;20436;-62
2022/10/15 09:39:50;;;;;;;3.17;2.87;;;17.10;99.90;;;;;;5058101;28;20466;-63
2022/10/15 09:42:29;;;;;;;4.40;2.97;;;16.80;1.00;;;;;;5058601;28;20723;-63
2022/10/15 09:45:00;;;;;;;2.70;2.50;;;17.10;99.90;;;;;;5058390;28;20700;-63
2022/10/15 09:47:32;;;;;;;3.47;3.17;;;17.70;99.90;;;;;;5059046;28;20462;-63
2022/10/15 09:50:01;;;;;;;3.53;2.57;;;18.00;99.90;;;;;;5056416;28;20511;-63
2022/10/15 09:52:52;;;;;;;4.00;2.60;;;18.30;99.90;;;;;;5054746;28;20884;-63
2022/10/15 09:55:33;;;;;;;3.20;2.90;;;18.00;99.90;;;;;;5055326;28;20970;-63
2022/10/15 09:58:12;;;;;;;3.33;2.80;;;17.80;99.90;;;;;;5056945;28;20462;-63
2022/10/15 10:00:55;;;;;;;3.00;2.70;;;17.40;99.90;;;;;;5057908;28;20560;-63
2022/10/15 10:03:24;;;;;;;2.87;2.30;;;17.20;1.00;;;;;;5057470;28;20782;-63
2022/10/15 10:06:01;;;;;;;5.70;2.83;;;16.90;99.90;;;;;;5055971;28;20447;-63
2022/10/15 10:08:33;;;;;;;3.37;2.10;;;16.70;1.00;;;;;;5054601;28;20428;-63
2022/10/15 10:11:02;;;;;;;2.73;2.00;;;16.80;99.90;;;;;;5049731;28;20464;-63
2022/10/15 10:13:33;;;;;;;2.07;1.67;;;17.00;1.00;;;;;;5054906;28;20517;-63
2022/10/15 10:16:07;;;;;;;2.90;2.17;;;17.40;99.90;;;;;;5054380;28;20468;-63
2022/10/15 10:18:36;;;;;;;2.00;1.70;;;17.90;9.30;;;;;;5054018;28;20462;-63
2022/10/15 10:21:08;;;;;;;2.00;1.60;;;18.40;1.00;;;;;;5054482;28;20547;-63
2022/10/15 10:23:40;;;;;;;2.50;2.20;;;18.50;1.00;;;;;;5053533;28;20481;-64
2022/10/15 10:26:10;;;;;;;2.70;2.20;;;18.30;1.00;;;;;;5054966;28;20454;-63
2022/10/15 10:28:49;;;;;;;2.10;1.90;;;18.10;1.00;;;;;;5055843;28;20517;-63
2022/10/15 10:31:20;;;;;;;2.20;2.00;;;18.30;1.00;;;;;;5055893;28;20485;-63
2022/10/15 10:33:51;;;;;;;2.57;1.73;;;18.70;1.00;;;;;;5055914;28;20433;-63
2022/10/15 10:36:26;;;;;;;2.30;1.73;;;18.90;1.00;;;;;;5056435;28;20454;-63
2022/10/15 10:39:01;;;;;;;2.00;1.77;;;19.00;1.00;;;;;;5056612;28;20462;-63
2022/10/15 10:41:50;;;;;;;2.23;1.67;;;18.60;1.00;;;;;;5055050;28;20453;-63
2022/10/15 10:44:26;;;;;;;2.43;2.00;;;18.20;1.00;;;;;;5055869;28;20504;-62
2022/10/15 10:47:10;;;;;;;2.13;1.60;;;17.90;1.00;;;;;;5055189;28;20462;-63
2022/10/15 10:49:42;;;;;;;3.87;2.60;;;17.70;1.00;;;;;;5055029;28;20462;-64
2022/10/15 10:52:23;;;;;;;2.73;2.53;;;17.30;13.30;;;;;;5056496;28;20486;-63
2022/10/15 10:55:02;;;;;;;2.70;2.17;;;17.00;99.90;;;;;;5055066;28;20512;-63
2022/10/15 10:57:41;;;;;;;5.00;2.73;;;16.90;1.00;;;;;;5054250;28;20861;-62
2022/10/15 11:00:15;;;;;;;3.60;2.07;;;17.00;99.90;;;;;;5055455;28;20458;-63
2022/10/15 11:02:43;;;;;;;2.93;2.57;;;17.10;1.00;;;;;;5053236;28;20454;-63
2022/10/15 11:05:13;;;;;;;3.90;2.60;;;17.20;27.00;;;;;;5055465;28;20808;-61
2022/10/15 11:07:49;;;;;;;2.90;2.23;;;17.20;1.00;;;;;;5055898;28;20425;-62
2022/10/15 11:10:22;;;;;;;3.70;2.20;;;17.30;1.00;;;;;;5055143;28;20515;-63
2022/10/15 11:13:05;;;;;;;3.10;2.27;;;17.20;1.00;;;;;;5056000;28;20458;-63
2022/10/15 11:15:45;;;;;;;2.60;2.30;;;17.20;99.90;;;;;;5055445;28;20505;-63
2022/10/15 11:18:37;;;;;;;2.93;2.33;;;17.40;1.00;;;;;;5055018;28;20881;-63
2022/10/15 11:21:18;;;;;;;6.67;2.47;;;17.30;99.90;;;;;;5057482;28;20425;-63
2022/10/15 11:24:23;;;;;;;2.47;2.23;;;17.10;99.90;;;;;;5059540;28;20485;-64
2022/10/15 11:27:04;;;;;;;2.30;2.10;;;16.90;55.60;;;;;;5038210;28;20954;-63
2022/10/15 11:29:40;;;;;;;2.30;2.10;;;16.80;99.90;;;;;;5058039;28;20805;-63
2022/10/15 11:32:19;;;;;;;2.90;2.60;;;16.90;1.00;;;;;;5058759;28;20931;-64
2022/10/15 11:35:00;;;;;;;2.73;2.23;;;17.00;1.00;;;;;;5058828;28;20462;-63
2022/10/15 11:37:37;;;;;;;3.67;2.47;;;17.20;99.90;;;;;;5056858;28;20909;-63
2022/10/15 11:40:20;;;;;;;4.43;2.67;;;17.20;99.90;;;;;;5057721;28;20437;-63
2022/10/15 11:42:55;;;;;;;2.63;2.43;;;17.40;99.90;;;;;;5057280;28;20450;-63
2022/10/15 11:45:47;;;;;;;5.57;2.43;;;17.40;1.00;;;;;;5056970;28;20453;-64
2022/10/15 11:48:22;;;;;;;2.30;1.90;;;17.40;1.00;;;;;;5057441;28;20462;-63
2022/10/15 11:50:57;;;;;;;2.20;1.90;;;17.60;1.00;;;;;;5057313;28;20562;-62
2022/10/15 11:53:47;;;;;;;3.73;2.77;;;17.60;1.00;;;;;;5039320;28;20458;-63
2022/10/15 11:56:21;;;;;;;4.03;2.50;;;17.70;1.00;;;;;;5030501;28;20532;-63
2022/10/15 11:58:51;;;;;;;2.77;2.37;;;17.90;1.00;;;;;;5042637;28;20962;-63
2022/10/15 12:01:25;;;;;;;3.40;2.40;;;17.70;99.90;;;;;;5058312;28;20484;-63
2022/10/15 12:03:56;;;;;;;2.87;2.20;;;17.70;1.00;;;;;;5059331;28;20859;-63
2022/10/15 12:06:30;;;;;;;2.43;2.13;;;17.60;99.90;;;;;;5058912;28;20462;-63
2022/10/15 12:08:59;;;;;;;5.23;2.37;;;17.50;99.90;;;;;;5059512;28;20922;-63
2022/10/15 12:11:42;;;;;;;2.80;2.40;;;17.50;1.00;;;;;;5059422;28;20802;-63
2022/10/15 12:14:21;;;;;;;3.37;2.40;;;17.60;1.00;;;;;;5059732;28;20440;-63
2022/10/15 12:17:01;;;;;;;2.93;2.30;;;17.60;31.00;;;;;;5057503;28;20753;-63
2022/10/15 12:19:32;;;;;;;5.10;2.50;;;17.60;89.80;;;;;;5057615;28;20445;-63
2022/10/15 12:22:12;;;;;;;3.10;2.80;;;17.60;99.90;;;;;;5059113;28;20465;-62
2022/10/15 12:24:55;;;;;;;3.53;2.83;;;17.60;99.90;;;;;;5058382;28;20785;-63
2022/10/15 12:27:33;;;;;;;3.90;3.00;;;17.50;1.00;;;;;;5054766;28;20573;-65
2022/10/15 12:30:31;;;;;;;2.90;2.47;;;17.40;99.90;;;;;;5058455;28;20465;-63
2022/10/15 12:32:58;;;;;;;2.57;2.37;;;17.10;1.00;;;;;;5014290;28;20449;-63
2022/10/15 12:35:36;;;;;;;2.47;2.27;;;17.20;1.00;;;;;;5057415;28;20458;-63
2022/10/15 12:38:21;;;;;;;3.20;2.27;;;17.10;1.00;;;;;;5058915;28;20466;-63
2022/10/15 12:40:57;;;;;;;3.50;2.73;;;17.10;99.90;;;;;;5055988;28;20454;-63
2022/10/15 12:43:29;;;;;;;2.60;2.40;;;17.10;1.00;;;;;;5056344;28;20488;-64
2022/10/15 12:46:02;;;;;;;2.63;2.23;;;17.20;99.90;;;;;;5056412;28;20494;-63
2022/10/15 12:48:31;;;;;;;3.27;2.10;;;17.30;1.00;;;;;;5056136;28;20462;-62
2022/10/15 12:51:37;;;;;;;3.67;2.40;;;17.30;99.90;;;;;;5055712;28;20497;-64
2022/10/15 12:54:38;;;;;;;6.17;3.07;;;17.40;1.00;;;;;;5056979;28;20897;-64
2022/10/15 12:57:41;;;;;;;3.23;2.43;;;17.50;99.90;;;;;;5053063;28;20479;-63
2022/10/15 13:00:36;;;;;;;4.13;2.77;;;17.40;1.00;;;;;;5058033;28;20462;-63